Time;durP1;ratioP1;P1;durP2;ratioP2;P2;SDS_P1;SDS_P2;PMS_P1;PMS_P2;Temp;Humidity;BMP_temperature;BMP_pressure;BME280_temperature;BME280_humidity;BME280_pressure;Samples;Min_cycle;Max_cycle;Signal;HPM_P1;HPM_P2
2022/03/28 00:02:43;;;;;;;12.57;8.97;;;;;;;3.44;86.65;95453.25;5049458;28;20194;-66
2022/03/28 00:05:29;;;;;;;15.93;8.80;;;;;;;3.63;87.29;95455.41;5032879;28;20203;-65
2022/03/28 00:08:15;;;;;;;13.97;8.70;;;;;;;3.48;86.63;95451.28;5039471;28;20244;-65
2022/03/28 00:11:01;;;;;;;15.80;9.23;;;;;;;3.47;87.92;95450.53;5043291;28;20260;-65
2022/03/28 00:13:47;;;;;;;15.53;10.23;;;;;;;3.27;87.47;95446.84;5029674;28;20378;-61
2022/03/28 00:16:33;;;;;;;14.77;9.33;;;;;;;3.30;89.24;95443.34;5043934;28;20264;-61
2022/03/28 00:19:19;;;;;;;14.17;9.00;;;;;;;3.63;88.15;95450.03;5033601;28;20218;-61
2022/03/28 00:22:04;;;;;;;12.17;8.60;;;;;;;3.44;86.88;95437.06;5029741;28;20218;-63
2022/03/28 00:24:50;;;;;;;16.10;9.57;;;;;;;3.24;87.48;95438.75;5036523;28;20277;-64
2022/03/28 00:27:37;;;;;;;14.73;9.40;;;;;;;2.79;92.13;95440.56;5025586;28;20223;-66
2022/03/28 00:30:23;;;;;;;12.70;8.90;;;;;;;2.80;93.75;95428.63;5038260;28;20265;-66
2022/03/28 00:33:09;;;;;;;15.23;8.40;;;;;;;2.64;93.74;95438.34;5046800;28;20198;-66
2022/03/28 00:35:55;;;;;;;12.07;8.17;;;;;;;2.52;94.74;95436.84;5042164;28;20269;-66
2022/03/28 00:38:41;;;;;;;13.17;9.07;;;;;;;2.65;94.69;95431.81;5046287;28;20285;-66
2022/03/28 00:41:27;;;;;;;15.67;9.10;;;;;;;2.59;94.46;95426.03;5025888;28;20683;-66
2022/03/28 00:44:13;;;;;;;14.37;9.20;;;;;;;2.49;96.02;95427.63;5047125;28;20194;-66
2022/03/28 00:46:59;;;;;;;18.77;8.97;;;;;;;2.49;96.49;95419.53;5041873;28;20244;-66
2022/03/28 00:49:45;;;;;;;13.17;8.93;;;;;;;2.47;97.25;95429.19;5037442;28;20190;-66
2022/03/28 00:52:33;;;;;;;13.73;9.23;;;;;;;2.59;97.07;95422.56;5048202;28;20186;-66
2022/03/28 00:55:19;;;;;;;15.07;9.43;;;;;;;2.71;95.84;95411.34;5046875;28;20652;-65
2022/03/28 00:58:05;;;;;;;13.93;8.17;;;;;;;2.59;94.47;95414.47;5032012;28;20618;-66
2022/03/28 01:00:51;;;;;;;14.13;9.07;;;;;;;2.72;93.83;95413.63;5035657;28;20696;-66
2022/03/28 01:03:38;;;;;;;12.23;8.77;;;;;;;2.53;95.29;95416.81;5026237;28;20316;-61
2022/03/28 01:06:25;;;;;;;11.33;8.23;;;;;;;2.36;95.60;95410.34;5036663;28;20222;-63
2022/03/28 01:09:11;;;;;;;17.20;8.63;;;;;;;2.17;96.64;95415.44;5033903;28;20206;-64
2022/03/28 01:11:58;;;;;;;12.73;8.63;;;;;;;2.59;99.03;95417.97;5053249;28;20204;-66
2022/03/28 01:14:45;;;;;;;15.67;9.03;;;;;;;2.65;94.73;95408.28;5050312;28;20217;-65
2022/03/28 01:20:39;;;;;;;12.23;8.67;;;;;;;2.15;97.83;95415.06;5034017;28;20206;-64
2022/03/28 01:23:25;;;;;;;16.73;8.67;;;;;;;2.43;99.86;95407.63;5051933;28;20193;-64
2022/03/28 01:26:14;;;;;;;16.03;9.00;;;;;;;2.56;96.93;95396.41;5047529;28;20195;-64
2022/03/28 01:29:01;;;;;;;15.23;9.20;;;;;;;2.37;96.02;95405.75;5043530;28;20284;-63
2022/03/28 01:31:47;;;;;;;13.83;8.63;;;;;;;2.04;99.31;95409.72;5050888;28;20198;-66
2022/03/28 01:34:34;;;;;;;18.73;8.80;;;;;;;1.94;100.00;95402.44;5050149;28;20583;-64
2022/03/28 01:37:19;;;;;;;14.20;9.47;;;;;;;1.90;100.00;95406.28;5031745;28;20647;-65
2022/03/28 01:40:06;;;;;;;14.70;9.20;;;;;;;1.85;100.00;95396.69;5027471;28;20215;-61
2022/03/28 01:42:52;;;;;;;14.27;9.57;;;;;;;1.94;100.00;95405.13;5044418;28;20526;-61
2022/03/28 01:45:38;;;;;;;18.43;8.73;;;;;;;1.95;100.00;95397.81;5035565;28;20190;-63
2022/03/28 01:48:24;;;;;;;13.47;9.13;;;;;;;1.93;100.00;95400.91;5027065;28;20318;-63
2022/03/28 01:51:10;;;;;;;15.80;8.90;;;;;;;1.95;100.00;95403.22;5038610;28;20501;-64
2022/03/28 01:53:59;;;;;;;15.87;9.70;;;;;;;1.97;100.00;95390.88;5009719;28;20187;-64
2022/03/28 01:56:45;;;;;;;14.23;8.90;;;;;;;2.25;100.00;95380.00;5046139;28;20226;-64
2022/03/28 01:59:31;;;;;;;12.00;8.10;;;;;;;2.19;97.19;95378.09;5032388;28;20284;-64
2022/03/28 02:02:17;;;;;;;14.97;8.60;;;;;;;1.91;99.99;95384.38;5047653;28;20248;-64
2022/03/28 02:05:05;;;;;;;17.83;8.97;;;;;;;1.71;100.00;95385.97;5046515;28;20187;-64
2022/03/28 02:07:51;;;;;;;12.27;9.03;;;;;;;1.65;100.00;95378.63;5046004;28;20210;-64
2022/03/28 02:10:36;;;;;;;15.83;9.00;;;;;;;1.58;100.00;95374.03;5039170;28;20213;-64
2022/03/28 02:13:22;;;;;;;12.97;9.30;;;;;;;1.69;100.00;95380.19;5048555;28;20245;-64
2022/03/28 02:16:08;;;;;;;14.00;9.03;;;;;;;2.02;100.00;95365.47;5050429;28;20194;-66
2022/03/28 02:18:56;;;;;;;16.50;9.80;;;;;;;2.03;100.00;95367.78;5040823;28;20207;-64
2022/03/28 02:21:42;;;;;;;15.00;9.13;;;;;;;2.23;100.00;95368.84;5040477;28;20202;-64
2022/03/28 02:24:28;;;;;;;18.77;9.47;;;;;;;2.21;100.00;95363.06;5050755;28;20199;-63
2022/03/28 02:27:14;;;;;;;14.43;9.20;;;;;;;1.93;100.00;95360.50;5042711;28;20802;-63
2022/03/28 02:30:00;;;;;;;21.00;8.30;;;;;;;1.87;100.00;95363.97;5042480;28;20190;-63
2022/03/28 02:32:46;;;;;;;17.20;8.60;;;;;;;1.75;100.00;95367.84;5049902;28;20683;-64
2022/03/28 02:35:33;;;;;;;12.47;9.07;;;;;;;1.56;100.00;95360.19;5046780;28;20190;-65
2022/03/28 02:38:19;;;;;;;15.40;8.80;;;;;;;1.38;100.00;95366.78;5045736;28;20242;-64
2022/03/28 02:41:04;;;;;;;13.57;9.27;;;;;;;1.26;100.00;95364.50;5042955;28;20229;-64
2022/03/28 02:43:52;;;;;;;14.47;9.47;;;;;;;1.20;100.00;95367.56;5042630;28;20205;-64
2022/03/28 02:46:38;;;;;;;14.43;9.30;;;;;;;1.18;100.00;95363.72;5049506;28;20186;-63
2022/03/28 02:49:24;;;;;;;12.63;8.43;;;;;;;1.18;100.00;95361.81;5043288;28;20190;-64
2022/03/28 02:52:10;;;;;;;14.60;9.03;;;;;;;1.14;100.00;95361.03;5036142;28;20286;-65
2022/03/28 02:54:56;;;;;;;13.33;8.90;;;;;;;0.99;100.00;95342.59;5016879;28;20202;-65
2022/03/28 02:57:42;;;;;;;17.23;9.43;;;;;;;1.18;100.00;95361.81;5033455;28;20214;-65
2022/03/28 03:00:28;;;;;;;14.30;9.10;;;;;;;1.03;100.00;95354.13;5039156;28;20230;-61
2022/03/28 03:03:14;;;;;;;12.83;8.30;;;;;;;0.97;100.00;95355.66;5046823;28;20277;-61
2022/03/28 03:06:00;;;;;;;14.50;8.30;;;;;;;0.91;100.00;95346.44;5042826;28;20187;-61
2022/03/28 03:08:46;;;;;;;14.17;9.30;;;;;;;1.00;100.00;95346.84;5037063;28;20221;-61
2022/03/28 03:11:31;;;;;;;15.53;9.20;;;;;;;1.08;100.00;95362.59;5031977;28;20230;-61
2022/03/28 03:14:17;;;;;;;16.20;9.07;;;;;;;1.32;100.00;95363.72;5048932;28;20656;-61
2022/03/28 03:17:04;;;;;;;13.30;8.33;;;;;;;1.46;100.00;95355.63;5035034;28;20267;-64
2022/03/28 03:19:50;;;;;;;20.17;9.00;;;;;;;1.61;100.00;95356.38;5042921;28;20219;-64
2022/03/28 03:22:36;;;;;;;15.73;8.97;;;;;;;1.77;100.00;95356.69;5045873;28;20272;-64
2022/03/28 03:25:22;;;;;;;17.23;9.30;;;;;;;1.73;100.00;95353.25;5034195;28;20210;-66
2022/03/28 03:28:08;;;;;;;14.17;9.37;;;;;;;1.59;100.00;95348.69;5030290;28;20224;-66
2022/03/28 03:30:54;;;;;;;12.57;8.53;;;;;;;1.70;100.00;95360.19;5041821;28;20182;-64
2022/03/28 03:33:40;;;;;;;10.87;8.70;;;;;;;1.51;100.00;95355.22;5038853;28;20194;-61
2022/03/28 03:36:26;;;;;;;14.03;9.10;;;;;;;1.04;100.00;95358.34;5039053;28;20199;-61
2022/03/28 03:39:12;;;;;;;17.87;9.47;;;;;;;1.27;100.00;95350.66;5029958;28;20226;-65
2022/03/28 03:41:58;;;;;;;15.63;9.70;;;;;;;1.38;100.00;95359.47;5042381;28;20586;-65
2022/03/28 03:44:44;;;;;;;16.27;9.00;;;;;;;0.98;100.00;95368.75;5049487;28;20229;-65
2022/03/28 03:47:30;;;;;;;16.80;9.37;;;;;;;0.93;100.00;95360.28;5028258;28;20211;-64
2022/03/28 03:50:16;;;;;;;14.73;8.53;;;;;;;0.86;100.00;95360.28;5035345;28;20218;-64
2022/03/28 03:53:02;;;;;;;15.73;8.93;;;;;;;0.76;100.00;95359.13;5033737;28;20194;-64
2022/03/28 03:55:48;;;;;;;17.73;8.30;;;;;;;0.65;100.00;95361.03;5039348;28;20190;-64
2022/03/28 03:58:34;;;;;;;15.43;9.03;;;;;;;0.83;100.00;95361.81;5041809;28;20263;-64
2022/03/28 04:01:21;;;;;;;13.03;9.03;;;;;;;0.85;100.00;95362.19;5044670;28;20240;-64
2022/03/28 04:04:07;;;;;;;14.23;9.33;;;;;;;0.71;100.00;95353.34;5045500;28;20229;-61
2022/03/28 04:06:53;;;;;;;14.23;9.17;;;;;;;0.67;100.00;95350.66;5017269;28;20224;-61
2022/03/28 04:09:39;;;;;;;14.40;9.73;;;;;;;0.88;100.00;95352.59;5039526;28;20286;-64
2022/03/28 04:12:25;;;;;;;14.47;8.80;;;;;;;0.82;100.00;95359.50;5046679;28;20195;-65
2022/03/28 04:15:11;;;;;;;17.77;9.10;;;;;;;0.59;100.00;95343.75;5048773;28;20296;-61
2022/03/28 04:17:57;;;;;;;18.97;8.67;;;;;;;0.69;100.00;95351.06;5043072;28;20246;-66
2022/03/28 04:20:43;;;;;;;17.47;8.90;;;;;;;0.60;100.00;95349.88;5041295;28;20901;-66
2022/03/28 04:23:29;;;;;;;13.97;8.70;;;;;;;0.57;100.00;95356.03;5029341;28;20297;-66
2022/03/28 04:26:15;;;;;;;18.07;8.73;;;;;;;0.44;100.00;95349.47;5046567;28;20722;-66
2022/03/28 04:29:01;;;;;;;14.40;10.13;;;;;;;0.37;100.00;95354.84;5040035;28;20213;-66
2022/03/28 04:31:46;;;;;;;15.57;8.53;;;;;;;0.58;100.00;95349.47;5030097;28;20182;-66
2022/03/28 04:34:32;;;;;;;18.27;9.10;;;;;;;0.67;100.00;95349.88;5045362;28;20194;-65
2022/03/28 04:37:18;;;;;;;16.80;9.47;;;;;;;0.63;100.00;95351.81;5040542;28;20222;-66
2022/03/28 04:40:07;;;;;;;12.60;7.73;;;;;;;0.68;100.00;95344.13;5044140;28;20214;-66
2022/03/28 04:42:53;;;;;;;15.33;9.20;;;;;;;0.36;100.00;95342.53;5037856;28;20191;-66
2022/03/28 04:45:38;;;;;;;15.67;9.70;;;;;;;0.27;100.00;95353.66;5046152;28;20198;-66
2022/03/28 04:48:24;;;;;;;16.90;9.47;;;;;;;0.28;100.00;95357.88;5042624;28;20222;-66
2022/03/28 04:51:10;;;;;;;13.37;8.93;;;;;;;0.27;100.00;95345.63;5037725;28;20190;-61
2022/03/28 04:53:56;;;;;;;12.73;8.57;;;;;;;0.51;100.00;95342.19;5014185;28;20205;-65
2022/03/28 04:56:43;;;;;;;21.97;9.93;;;;;;;0.31;100.00;95346.38;5032980;28;20205;-61
2022/03/28 04:59:30;;;;;;;16.50;9.07;;;;;;;0.38;100.00;95337.56;5045324;28;20221;-61
2022/03/28 05:02:15;;;;;;;16.47;9.50;;;;;;;0.45;100.00;95345.63;5048738;28;20195;-64
2022/03/28 05:05:03;;;;;;;20.47;10.67;;;;;;;0.67;100.00;95344.50;5041255;28;20194;-64
2022/03/28 05:07:49;;;;;;;15.57;9.77;;;;;;;0.70;100.00;95341.06;5039553;28;20214;-64
2022/03/28 05:10:35;;;;;;;19.60;9.50;;;;;;;0.65;100.00;95339.53;5043335;28;20216;-64
2022/03/28 05:13:21;;;;;;;16.27;10.00;;;;;;;0.68;100.00;95348.75;5022164;28;20190;-64
2022/03/28 05:16:07;;;;;;;21.37;9.87;;;;;;;0.61;100.00;95344.13;5032807;28;20187;-64
2022/03/28 05:18:53;;;;;;;18.63;9.77;;;;;;;0.65;100.00;95344.13;5042830;28;20223;-64
2022/03/28 05:21:38;;;;;;;14.27;9.00;;;;;;;0.75;100.00;95343.34;5047554;28;20285;-64
2022/03/28 05:24:24;;;;;;;14.17;9.13;;;;;;;0.78;100.00;95343.38;5044748;28;20269;-61
2022/03/28 05:27:10;;;;;;;20.63;9.20;;;;;;;0.85;100.00;95340.69;5045108;28;20222;-61
2022/03/28 05:29:56;;;;;;;23.47;9.07;;;;;;;1.08;100.00;95338.38;5039200;28;20195;-61
2022/03/28 05:32:42;;;;;;;17.23;9.20;;;;;;;1.38;100.00;95335.25;5048239;28;20198;-61
2022/03/28 05:35:28;;;;;;;21.63;9.03;;;;;;;1.03;100.00;95348.75;5040367;28;20195;-65
2022/03/28 05:38:14;;;;;;;15.17;9.53;;;;;;;0.78;100.00;95345.31;5036105;28;20230;-66
2022/03/28 05:41:00;;;;;;;13.53;8.47;;;;;;;0.66;100.00;95345.69;5037717;28;20203;-66
2022/03/28 05:43:46;;;;;;;15.17;9.00;;;;;;;0.71;100.00;95343.34;5034770;28;20283;-66
2022/03/28 05:46:32;;;;;;;15.43;9.13;;;;;;;0.65;100.00;95338.75;5029091;28;20198;-66
2022/03/28 05:49:19;;;;;;;16.07;10.17;;;;;;;0.65;100.00;95344.91;5018951;28;20276;-66
2022/03/28 05:52:05;;;;;;;18.00;8.87;;;;;;;0.90;100.00;95342.97;5042658;28;20218;-66
2022/03/28 05:54:51;;;;;;;15.43;10.00;;;;;;;1.20;100.00;95334.53;5044936;28;20285;-65
2022/03/28 05:57:38;;;;;;;19.13;8.53;;;;;;;1.50;100.00;95339.47;5045735;28;20222;-64
2022/03/28 06:00:23;;;;;;;20.40;9.97;;;;;;;1.55;100.00;95329.06;5044330;28;20786;-64
2022/03/28 06:03:09;;;;;;;15.30;8.97;;;;;;;1.74;100.00;95335.94;5035335;28;20226;-64
2022/03/28 06:05:56;;;;;;;21.73;9.53;;;;;;;1.77;100.00;95335.94;5048199;28;20752;-65
2022/03/28 06:08:41;;;;;;;28.90;10.27;;;;;;;2.19;100.00;95327.66;5035718;28;20746;-61
2022/03/28 06:11:27;;;;;;;17.97;9.50;;;;;;;2.42;100.00;95335.25;5026623;28;20320;-65
2022/03/28 06:14:13;;;;;;;19.60;10.57;;;;;;;2.64;100.00;95338.56;5051423;28;20198;-62
2022/03/28 06:16:59;;;;;;;18.33;9.67;;;;;;;2.79;100.00;95334.63;5031585;28;20574;-66
2022/03/28 06:19:45;;;;;;;18.70;10.60;;;;;;;2.97;100.00;95332.56;5037316;28;20219;-62
2022/03/28 06:22:31;;;;;;;15.77;9.20;;;;;;;3.05;100.00;95340.22;5038676;28;20683;-65
2022/03/28 06:25:17;;;;;;;20.67;10.03;;;;;;;3.28;100.00;95337.69;5038307;28;20198;-62
2022/03/28 06:28:03;;;;;;;20.20;10.63;;;;;;;3.45;100.00;95347.56;5044093;28;20215;-62
2022/03/28 06:30:49;;;;;;;20.20;10.10;;;;;;;3.61;100.00;95342.38;5038557;28;20203;-66
2022/03/28 06:33:36;;;;;;;19.40;10.40;;;;;;;3.87;100.00;95340.94;5049822;28;20797;-62
2022/03/28 06:36:22;;;;;;;14.93;10.17;;;;;;;4.08;100.00;95346.09;5034920;28;20684;-66
2022/03/28 06:39:07;;;;;;;18.00;10.07;;;;;;;4.14;100.00;95339.06;5042965;28;20325;-66
2022/03/28 06:41:53;;;;;;;26.63;11.07;;;;;;;4.53;100.00;95341.28;5027414;28;20278;-62
2022/03/28 06:44:39;;;;;;;24.80;10.63;;;;;;;4.99;100.00;95343.34;5019298;28;20264;-62
2022/03/28 06:47:25;;;;;;;29.97;10.73;;;;;;;5.31;100.00;95341.63;5048301;28;20225;-64
2022/03/28 06:50:11;;;;;;;16.53;10.60;;;;;;;5.71;99.50;95345.19;5044736;28;20272;-64
2022/03/28 06:52:57;;;;;;;17.63;12.20;;;;;;;6.09;100.00;95343.75;5050296;28;20652;-66
2022/03/28 06:55:43;;;;;;;16.53;10.87;;;;;;;6.37;100.00;95331.53;5033035;28;20194;-66
2022/03/28 06:58:29;;;;;;;19.87;10.93;;;;;;;6.59;100.00;95327.19;5041506;28;20254;-62
2022/03/28 07:01:15;;;;;;;14.73;11.07;;;;;;;6.76;100.00;95328.75;5049483;28;20190;-61
2022/03/28 07:04:03;;;;;;;15.63;11.60;;;;;;;6.96;100.00;95324.78;5047365;28;20550;-65
2022/03/28 07:06:49;;;;;;;16.77;10.13;;;;;;;7.15;100.00;95328.63;5023688;28;20191;-65
2022/03/28 07:09:35;;;;;;;15.97;10.43;;;;;;;7.03;100.00;95323.88;5037893;28;20688;-62
2022/03/28 07:12:21;;;;;;;14.40;10.77;;;;;;;7.03;100.00;95318.44;5031242;28;20664;-62
2022/03/28 07:15:09;;;;;;;15.73;10.77;;;;;;;6.96;100.00;95322.09;5034854;28;20289;-63
2022/03/28 07:17:58;;;;;;;17.80;8.77;;;;;;;7.11;100.00;95325.25;5045152;28;20226;-64
2022/03/28 07:20:44;;;;;;;15.63;10.57;;;;;;;7.13;100.00;95322.84;5045659;28;20732;-64
2022/03/28 07:23:31;;;;;;;14.13;10.37;;;;;;;7.22;100.00;95312.16;5036892;28;20233;-66
2022/03/28 07:26:17;;;;;;;14.97;10.37;;;;;;;7.24;100.00;95316.00;5040240;28;20198;-65
2022/03/28 07:29:04;;;;;;;17.80;9.93;;;;;;;7.40;100.00;95328.03;5048221;28;20213;-64
2022/03/28 07:31:50;;;;;;;14.37;9.20;;;;;;;7.56;99.20;95326.06;5043811;28;20264;-64
2022/03/28 07:34:38;;;;;;;15.80;9.93;;;;;;;7.67;95.97;95320.34;5047926;28;20277;-62
2022/03/28 07:37:24;;;;;;;22.50;9.60;;;;;;;7.87;95.79;95320.97;5050207;28;20446;-66
2022/03/28 07:40:11;;;;;;;17.97;10.47;;;;;;;8.05;99.84;95323.97;5043029;28;20298;-66
2022/03/28 07:42:57;;;;;;;28.03;10.67;;;;;;;8.05;99.93;95321.25;5030723;28;20245;-65
2022/03/28 07:45:43;;;;;;;43.20;10.37;;;;;;;8.27;99.02;95314.06;5027083;28;20679;-66
2022/03/28 07:48:29;;;;;;;49.47;11.10;;;;;;;8.28;100.00;95318.31;5031085;28;20232;-66
2022/03/28 07:51:15;;;;;;;18.90;10.17;;;;;;;8.32;97.95;95308.84;5037754;28;20178;-67
2022/03/28 07:54:01;;;;;;;17.57;10.20;;;;;;;8.48;96.74;95316.19;5048912;28;20190;-62
2022/03/28 07:56:47;;;;;;;12.30;9.13;;;;;;;8.76;92.53;95315.31;5031751;28;20218;-64
2022/03/28 07:59:33;;;;;;;13.80;9.03;;;;;;;8.84;93.69;95316.63;5014985;28;20733;-66
2022/03/28 08:02:19;;;;;;;10.70;8.70;;;;;;;8.94;88.02;95314.78;5047807;28;20202;-67
2022/03/28 08:05:07;;;;;;;17.30;8.57;;;;;;;9.09;86.13;95310.44;5044289;28;20287;-67
2022/03/28 08:07:53;;;;;;;12.97;8.50;;;;;;;9.20;83.66;95305.38;5037894;28;20211;-66
2022/03/28 08:10:39;;;;;;;9.80;7.90;;;;;;;9.58;80.88;95319.72;5033057;28;20195;-66
2022/03/28 08:13:25;;;;;;;13.80;8.37;;;;;;;9.53;76.21;95303.91;5044879;28;20509;-66
2022/03/28 08:16:13;;;;;;;10.90;8.60;;;;;;;9.77;74.50;95305.78;5039154;28;20535;-67
2022/03/28 08:18:59;;;;;;;11.80;8.07;;;;;;;10.04;73.20;95304.50;5033343;28;20237;-66
2022/03/28 08:21:45;;;;;;;11.70;7.33;;;;;;;10.16;71.13;95304.50;5039206;28;20195;-66
2022/03/28 08:24:30;;;;;;;14.23;8.50;;;;;;;10.37;70.14;95297.47;5047915;28;20269;-62
2022/03/28 08:27:17;;;;;;;11.80;8.00;;;;;;;10.38;65.70;95297.06;5048907;28;20340;-63
2022/03/28 08:30:04;;;;;;;16.10;7.53;;;;;;;10.46;65.52;95283.88;5043439;28;20182;-62
2022/03/28 08:32:50;;;;;;;10.73;7.87;;;;;;;10.74;64.03;95283.56;5048540;28;20190;-62
2022/03/28 08:35:37;;;;;;;9.73;7.47;;;;;;;11.05;63.73;95286.28;5042873;28;20690;-66
2022/03/28 08:38:23;;;;;;;10.90;7.63;;;;;;;11.27;62.66;95286.19;5020964;28;20222;-66
2022/03/28 08:41:14;;;;;;;9.00;7.27;;;;;;;11.50;62.10;95289.13;5037821;28;20287;-65
2022/03/28 08:44:00;;;;;;;15.60;8.77;;;;;;;11.63;61.02;95284.28;5030221;28;20202;-66
2022/03/28 08:46:48;;;;;;;11.80;8.63;;;;;;;11.84;61.62;95283.41;5049339;28;20198;-65
2022/03/28 08:49:36;;;;;;;12.13;8.80;;;;;;;12.02;62.00;95274.44;5040140;28;20526;-67
2022/03/28 08:52:24;;;;;;;12.33;8.47;;;;;;;12.33;61.30;95277.75;5031311;28;20195;-67
2022/03/28 08:55:12;;;;;;;12.03;8.50;;;;;;;12.67;60.20;95271.91;5036720;28;20286;-65
2022/03/28 08:57:57;;;;;;;15.00;8.47;;;;;;;12.72;59.32;95274.03;5042413;28;20223;-65
2022/03/28 09:00:43;;;;;;;13.03;8.23;;;;;;;12.73;56.58;95272.78;5045684;28;20656;-66
2022/03/28 09:03:41;;;;;;;14.20;8.10;;;;;;;12.89;55.28;95263.44;5048167;28;20228;-67
2022/03/28 09:06:42;;;;;;;14.13;8.60;;;;;;;13.13;54.58;95267.03;5041547;28;20281;-65
2022/03/28 09:09:29;;;;;;;24.17;10.13;;;;;;;13.02;55.01;95258.53;5025516;28;20183;-66
2022/03/28 09:12:15;;;;;;;14.03;7.87;;;;;;;13.03;56.06;95265.56;5048367;28;20285;-66
2022/03/28 09:15:04;;;;;;;10.57;7.80;;;;;;;13.05;56.63;95261.09;5032696;28;20189;-66
2022/03/28 09:17:57;;;;;;;14.60;9.10;;;;;;;13.09;54.80;95258.97;5041206;28;20229;-65
2022/03/28 09:20:50;;;;;;;22.07;9.77;;;;;;;13.33;53.15;95261.72;5042002;28;20301;-63
2022/03/28 09:23:38;;;;;;;25.93;9.43;;;;;;;13.50;51.18;95245.63;5039213;28;20194;-66
2022/03/28 09:26:26;;;;;;;29.50;10.57;;;;;;;13.97;49.08;95251.06;5032594;28;20209;-63
2022/03/28 09:29:12;;;;;;;56.90;10.67;;;;;;;14.27;49.34;95244.44;5038961;28;20286;-66
2022/03/28 09:31:58;;;;;;;32.30;10.97;;;;;;;14.51;48.34;95237.59;5048964;28;20190;-67
2022/03/28 09:34:46;;;;;;;19.37;9.40;;;;;;;14.79;47.70;95240.81;5051447;28;20222;-67
2022/03/28 09:37:52;;;;;;;22.80;11.47;;;;;;;15.15;47.49;95234.09;5039557;28;20215;-67
2022/03/28 09:40:37;;;;;;;15.47;10.27;;;;;;;15.40;45.72;95231.50;5038273;28;20229;-67
2022/03/28 09:43:29;;;;;;;13.77;9.37;;;;;;;15.62;45.37;95240.03;5037879;28;20191;-67
2022/03/28 09:46:25;;;;;;;18.97;9.33;;;;;;;15.69;44.25;95230.59;5026493;28;20193;-65
2022/03/28 09:49:23;;;;;;;12.30;9.57;;;;;;;15.66;44.15;95229.56;5036915;28;20206;-64
2022/03/28 09:52:16;;;;;;;15.57;10.80;;;;;;;15.66;43.56;95226.81;5036701;28;20191;-65
2022/03/28 09:55:05;;;;;;;15.57;9.50;;;;;;;15.74;43.38;95224.41;5035652;28;20543;-66
2022/03/28 09:57:51;;;;;;;15.03;10.27;;;;;;;15.72;42.60;95215.84;5047216;28;20215;-67
2022/03/28 10:00:37;;;;;;;14.20;9.83;;;;;;;15.73;42.44;95211.84;5052321;28;20615;-63
2022/03/28 10:03:23;;;;;;;15.30;9.20;;;;;;;15.54;42.92;95208.63;5029766;28;20425;-65
2022/03/28 10:06:09;;;;;;;15.70;10.07;;;;;;;15.50;42.50;95202.59;5043260;28;20576;-66
2022/03/28 10:08:55;;;;;;;19.37;10.60;;;;;;;15.75;43.84;95209.38;5041615;28;20656;-62
2022/03/28 10:11:42;;;;;;;13.63;10.67;;;;;;;15.65;42.23;95208.00;5031543;28;20191;-63
2022/03/28 10:14:30;;;;;;;21.27;11.27;;;;;;;15.71;43.05;95189.56;5032948;28;20212;-67
2022/03/28 10:17:17;;;;;;;14.43;9.90;;;;;;;15.76;41.28;95186.13;5050415;28;20241;-67
2022/03/28 10:20:04;;;;;;;19.50;10.20;;;;;;;15.66;40.75;95182.75;5036726;28;20221;-67
2022/03/28 10:22:53;;;;;;;15.93;10.87;;;;;;;15.86;41.57;95181.22;5051980;28;20187;-66
2022/03/28 10:25:41;;;;;;;18.80;10.17;;;;;;;16.00;40.41;95177.63;5046707;28;20195;-67
2022/03/28 10:28:27;;;;;;;16.23;9.93;;;;;;;16.21;40.45;95165.28;5035010;28;20237;-67
2022/03/28 10:31:16;;;;;;;13.73;10.43;;;;;;;16.36;39.72;95161.16;5049205;28;20187;-63
2022/03/28 10:34:03;;;;;;;16.47;10.63;;;;;;;16.31;40.08;95167.38;5041582;28;20964;-63
2022/03/28 10:36:49;;;;;;;22.60;11.73;;;;;;;16.05;39.94;95154.88;5034394;28;20198;-62
2022/03/28 10:39:37;;;;;;;24.10;12.37;;;;;;;16.29;39.12;95147.81;5044419;28;20233;-67
2022/03/28 10:42:24;;;;;;;18.43;10.90;;;;;;;16.44;39.06;95150.47;5031851;28;20359;-66
2022/03/28 10:45:11;;;;;;;19.63;11.53;;;;;;;16.57;38.75;95137.03;5029521;28;20672;-65
2022/03/28 10:47:59;;;;;;;18.33;11.37;;;;;;;16.78;38.97;95141.94;5032598;28;20275;-63
2022/03/28 10:50:51;;;;;;;18.03;11.47;;;;;;;17.01;38.64;95140.09;5044520;28;20195;-63
2022/03/28 10:53:43;;;;;;;16.67;10.80;;;;;;;16.83;37.40;95118.44;5030444;28;20190;-67
2022/03/28 10:56:36;;;;;;;13.67;10.63;;;;;;;16.84;37.70;95125.44;5050859;28;20278;-67
2022/03/28 10:59:23;;;;;;;12.90;9.97;;;;;;;17.19;37.89;95125.88;5048468;28;20265;-67
2022/03/28 11:02:27;;;;;;;17.13;11.70;;;;;;;17.14;36.48;95126.59;5031037;28;20209;-67
2022/03/28 11:05:14;;;;;;;16.10;11.13;;;;;;;17.16;36.17;95104.03;5045424;28;20194;-68
2022/03/28 11:08:54;;;;;;;22.80;12.33;;;;;;;17.11;37.26;95097.25;5040982;28;20226;-65
2022/03/28 11:12:01;;;;;;;16.90;11.00;;;;;;;17.21;36.38;95093.03;5023326;28;20395;-68
2022/03/28 11:14:50;;;;;;;25.43;11.13;;;;;;;17.57;37.21;95088.66;5035335;28;20196;-68
2022/03/28 11:17:36;;;;;;;17.73;10.93;;;;;;;17.31;36.89;95082.53;5015620;28;20223;-67
2022/03/28 11:20:23;;;;;;;15.87;11.50;;;;;;;17.13;36.54;95074.66;5032607;28;20218;-68
2022/03/28 11:23:11;;;;;;;19.37;11.37;;;;;;;17.41;35.71;95067.25;5051472;28;20194;-63
2022/03/28 11:25:58;;;;;;;19.17;12.27;;;;;;;17.85;33.23;95072.91;5050544;28;20543;-67
2022/03/28 11:28:44;;;;;;;16.60;12.13;;;;;;;17.78;31.83;95059.59;5039845;28;21014;-63
2022/03/28 11:31:30;;;;;;;15.30;11.60;;;;;;;17.70;31.27;95064.06;5050559;28;20216;-63
2022/03/28 11:34:16;;;;;;;16.30;11.37;;;;;;;17.68;30.19;95072.13;5049113;28;20202;-66
2022/03/28 11:37:03;;;;;;;17.27;11.77;;;;;;;17.97;31.59;95058.59;5047218;28;20260;-67
2022/03/28 11:39:59;;;;;;;14.93;11.17;;;;;;;17.84;31.32;95055.56;5025364;28;20219;-66
2022/03/28 11:42:49;;;;;;;17.77;12.10;;;;;;;17.96;30.50;95050.81;5042872;28;20636;-67
2022/03/28 11:45:44;;;;;;;17.47;11.20;;;;;;;18.05;29.67;95048.53;5049245;28;20187;-67
2022/03/28 11:48:30;;;;;;;13.13;9.23;;;;;;;18.26;27.70;95037.97;5030315;28;20715;-67
2022/03/28 11:51:16;;;;;;;16.47;10.63;;;;;;;17.97;28.15;95035.72;5030535;28;20575;-64
2022/03/28 11:54:11;;;;;;;13.67;10.50;;;;;;;17.89;28.11;95029.94;5030497;28;20259;-68
2022/03/28 12:00:01;;;;;;;15.40;10.80;;;;;;;17.97;27.47;95010.84;5028110;28;20241;-67
2022/03/28 12:02:55;;;;;;;19.60;11.30;;;;;;;18.14;28.33;95017.13;5050275;28;20674;-67
2022/03/28 12:05:46;;;;;;;22.07;12.17;;;;;;;18.13;28.94;95012.09;5027998;28;20191;-64
2022/03/28 12:08:32;;;;;;;18.20;11.93;;;;;;;18.21;29.63;95000.03;5043866;28;20209;-64
2022/03/28 12:11:18;;;;;;;17.90;11.57;;;;;;;18.25;29.76;94997.00;5040861;28;20193;-68
2022/03/28 12:14:04;;;;;;;14.53;11.20;;;;;;;18.45;29.07;94993.97;5048049;28;20252;-63
2022/03/28 12:16:54;;;;;;;18.80;10.83;;;;;;;18.44;28.08;94990.47;5048703;28;20244;-64
2022/03/28 12:19:41;;;;;;;19.13;11.17;;;;;;;18.41;27.48;94982.44;5032136;28;20320;-68
2022/03/28 12:22:27;;;;;;;17.10;12.63;;;;;;;18.13;28.13;94978.91;5045244;28;20214;-64
2022/03/28 12:25:28;;;;;;;20.57;11.33;;;;;;;18.42;28.10;94967.34;5036272;28;20205;-64
2022/03/28 12:28:16;;;;;;;21.80;12.40;;;;;;;18.36;29.06;94961.06;5031881;28;20215;-64
2022/03/28 12:31:05;;;;;;;18.70;12.20;;;;;;;18.18;28.19;94956.03;5014241;28;20179;-66
2022/03/28 12:33:52;;;;;;;16.53;12.20;;;;;;;18.06;27.89;94952.53;5019888;28;20285;-63
2022/03/28 12:36:38;;;;;;;14.93;11.53;;;;;;;18.30;28.95;94958.28;5041942;28;20190;-67
2022/03/28 12:39:27;;;;;;;18.37;11.43;;;;;;;18.23;27.80;94942.22;5039339;28;20223;-66
2022/03/28 12:42:26;;;;;;;18.07;12.77;;;;;;;18.02;28.40;94935.47;5041826;28;20191;-64
2022/03/28 12:45:12;;;;;;;16.33;11.57;;;;;;;18.48;27.89;94923.84;5026850;28;20211;-67
2022/03/28 12:48:01;;;;;;;18.80;12.97;;;;;;;18.64;27.69;94925.78;5017550;28;20245;-68
2022/03/28 12:50:56;;;;;;;16.97;12.07;;;;;;;18.12;28.36;94924.91;5030911;28;20198;-67
2022/03/28 12:53:42;;;;;;;21.23;12.13;;;;;;;18.22;28.21;94912.31;5041253;28;20195;-68
2022/03/28 12:56:28;;;;;;;18.63;12.37;;;;;;;18.32;27.99;94908.00;5034172;28;20215;-68
2022/03/28 12:59:25;;;;;;;19.37;11.30;;;;;;;18.49;29.25;94908.75;5037114;28;20608;-64
2022/03/28 13:02:13;;;;;;;18.43;12.23;;;;;;;18.27;27.72;94894.94;5046024;28;20667;-63
2022/03/28 13:05:01;;;;;;;16.97;11.80;;;;;;;18.48;28.40;94890.66;5039006;28;20186;-65